Time;durP1;ratioP1;P1;durP2;ratioP2;P2;SDS_P1;SDS_P2;PMS_P1;PMS_P2;Temp;Humidity;BMP_temperature;BMP_pressure;BME280_temperature;BME280_humidity;BME280_pressure;Samples;Min_cycle;Max_cycle;Signal;HPM_P1;HPM_P2
2022/07/17 00:00:45;;;;;;;;;;;14.40;94.40;;;;;;5097100;28;19928;-82
2022/07/17 00:03:13;;;;;;;;;;;14.20;94.00;;;;;;5080655;28;20342;-84
2022/07/17 00:05:45;;;;;;;;;;;14.20;93.90;;;;;;5085841;28;19934;-86
2022/07/17 00:08:12;;;;;;;;;;;14.20;94.40;;;;;;5077887;28;19934;-84
2022/07/17 00:10:40;;;;;;;;;;;14.10;94.40;;;;;;5074954;28;20568;-82
2022/07/17 00:13:07;;;;;;;;;;;14.50;95.00;;;;;;5094772;28;19928;-84
2022/07/17 00:15:34;;;;;;;;;;;13.90;94.30;;;;;;5086617;28;20000;-83
2022/07/17 00:18:02;;;;;;;;;;;13.90;95.00;;;;;;5073159;28;19935;-83
2022/07/17 00:20:29;;;;;;;;;;;13.80;94.50;;;;;;5085705;28;19931;-83
2022/07/17 00:22:58;;;;;;;;;;;13.80;95.30;;;;;;5068227;28;19936;-83
2022/07/17 00:25:25;;;;;;;;;;;13.80;95.40;;;;;;5096837;28;19928;-83
2022/07/17 00:27:52;;;;;;;;;;;13.70;95.50;;;;;;5095273;28;19925;-84
2022/07/17 00:30:19;;;;;;;;;;;13.50;95.30;;;;;;5088136;28;20032;-83
2022/07/17 00:32:46;;;;;;;;;;;13.60;95.70;;;;;;5069803;28;20394;-84
2022/07/17 00:35:14;;;;;;;;;;;13.50;95.00;;;;;;5094644;28;19947;-84
2022/07/17 00:37:42;;;;;;;;;;;13.50;96.00;;;;;;5064413;28;19992;-82
2022/07/17 00:40:12;;;;;;;;;;;13.40;95.90;;;;;;5072344;28;19928;-83
2022/07/17 00:42:39;;;;;;;;;;;13.40;96.00;;;;;;5069931;28;19974;-83
2022/07/17 00:45:07;;;;;;;;;;;13.30;96.40;;;;;;5080096;28;19924;-83
2022/07/17 00:47:34;;;;;;;;;;;13.30;96.50;;;;;;5080169;28;19947;-84
2022/07/17 00:50:01;;;;;;;;;;;13.20;96.60;;;;;;5075451;28;19925;-83
2022/07/17 00:52:28;;;;;;;;;;;13.20;96.60;;;;;;5069273;28;19950;-85
2022/07/17 00:54:55;;;;;;;;;;;13.10;96.70;;;;;;5078430;28;19935;-85
2022/07/17 00:57:25;;;;;;;;;;;13.00;96.80;;;;;;5069220;28;20565;-84
2022/07/17 00:59:53;;;;;;;;;;;13.00;96.90;;;;;;5090984;28;20651;-84
2022/07/17 01:02:20;;;;;;;;;;;13.00;96.80;;;;;;5088476;28;19970;-84
2022/07/17 01:04:46;;;;;;;;;;;12.90;97.50;;;;;;5064419;28;19974;-84
2022/07/17 01:07:13;;;;;;;;;;;12.90;97.80;;;;;;5066030;28;19924;-84
2022/07/17 01:09:41;;;;;;;;;;;12.90;98.00;;;;;;5068648;28;20542;-82
2022/07/17 01:12:09;;;;;;;;;;;12.90;98.20;;;;;;5079229;28;19928;-83
2022/07/17 01:14:38;;;;;;;;;;;12.80;97.70;;;;;;5072801;28;19959;-84
2022/07/17 01:17:06;;;;;;;;;;;12.80;98.40;;;;;;5078565;28;19939;-83
2022/07/17 01:19:32;;;;;;;;;;;12.80;98.50;;;;;;5071883;28;20054;-80
2022/07/17 01:22:01;;;;;;;;;;;12.70;98.20;;;;;;5067585;28;19924;-80
2022/07/17 01:24:28;;;;;;;;;;;12.70;98.90;;;;;;5093694;28;19924;-81
2022/07/17 01:26:55;;;;;;;;;;;12.70;98.30;;;;;;5099161;28;19928;-80
2022/07/17 01:29:22;;;;;;;;;;;12.70;99.40;;;;;;5094108;28;19935;-81
2022/07/17 01:31:52;;;;;;;;;;;12.70;99.60;;;;;;5068928;28;20394;-80
2022/07/17 01:34:19;;;;;;;;;;;12.70;99.80;;;;;;5067556;28;19936;-83
2022/07/17 01:36:46;;;;;;;;;;;12.70;99.90;;;;;;5064580;28;20492;-81
2022/07/17 01:39:14;;;;;;;;;;;12.60;99.90;;;;;;5094709;28;19953;-79
2022/07/17 01:41:41;;;;;;;;;;;12.60;99.70;;;;;;5085402;28;19936;-80
2022/07/17 01:44:08;;;;;;;;;;;12.60;99.90;;;;;;5068751;28;20520;-80
2022/07/17 01:46:35;;;;;;;;;;;12.60;99.90;;;;;;5093526;28;19932;-80
2022/07/17 01:49:07;;;;;;;;;;;12.60;99.90;;;;;;5078532;28;20432;-80
2022/07/17 01:51:33;;;;;;;;;;;12.60;99.90;;;;;;5074691;28;19925;-80
2022/07/17 01:54:00;;;;;;;;;;;12.50;99.90;;;;;;5060479;28;19925;-79
2022/07/17 01:56:29;;;;;;;;;;;12.50;99.90;;;;;;5074715;28;19925;-83
2022/07/17 01:58:55;;;;;;;;;;;12.50;99.90;;;;;;5069559;28;20348;-82
2022/07/17 02:01:23;;;;;;;;;;;12.40;99.90;;;;;;5076825;28;19928;-81
2022/07/17 02:03:50;;;;;;;;;;;12.40;99.90;;;;;;5063985;28;19928;-82
2022/07/17 02:06:17;;;;;;;;;;;12.40;99.90;;;;;;5069773;28;19924;-80
2022/07/17 02:08:44;;;;;;;;;;;12.30;99.90;;;;;;5088384;28;19927;-83
2022/07/17 02:11:11;;;;;;;;;;;14.10;99.90;;;;;;5076190;28;19928;-83
2022/07/17 02:13:39;;;;;;;;;;;12.30;99.90;;;;;;5070605;28;20383;-80
2022/07/17 02:16:06;;;;;;;;;;;12.20;99.90;;;;;;5074497;28;19924;-83
2022/07/17 02:18:33;;;;;;;;;;;12.20;99.90;;;;;;5062377;28;20011;-81
2022/07/17 02:21:00;;;;;;;;;;;12.10;99.90;;;;;;5064896;28;19924;-79
2022/07/17 02:23:28;;;;;;;;;;;12.40;99.90;;;;;;5064790;28;19982;-79
2022/07/17 02:25:54;;;;;;;;;;;12.10;99.90;;;;;;5086066;28;19936;-78
2022/07/17 02:28:21;;;;;;;;;;;12.10;99.90;;;;;;5066665;28;20295;-80
2022/07/17 02:30:50;;;;;;;;;;;12.00;99.90;;;;;;5069825;28;19924;-80
2022/07/17 02:33:16;;;;;;;;;;;12.00;99.90;;;;;;5072945;28;19928;-79
2022/07/17 02:35:52;;;;;;;;;;;11.90;99.90;;;;;;5076675;28;19971;-82
2022/07/17 02:38:19;;;;;;;;;;;12.00;99.90;;;;;;5090212;28;20255;-80
2022/07/17 02:40:46;;;;;;;;;;;12.00;99.90;;;;;;5061868;28;19928;-80
2022/07/17 02:43:13;;;;;;;;;;;11.90;99.90;;;;;;5089045;28;19933;-77
2022/07/17 02:45:40;;;;;;;;;;;11.90;99.90;;;;;;5073728;28;20387;-78
2022/07/17 02:48:08;;;;;;;;;;;11.80;99.90;;;;;;5088007;28;20634;-79
2022/07/17 02:50:38;;;;;;;;;;;11.80;99.90;;;;;;5078345;28;19924;-79
2022/07/17 02:53:05;;;;;;;;;;;11.80;99.90;;;;;;5072798;28;19924;-79
2022/07/17 02:55:32;;;;;;;;;;;11.80;99.90;;;;;;5067880;28;20354;-81
2022/07/17 02:57:59;;;;;;;;;;;11.70;99.90;;;;;;5058005;28;19960;-80
2022/07/17 03:00:29;;;;;;;;;;;11.70;99.90;;;;;;5062223;28;19924;-80
2022/07/17 03:02:56;;;;;;;;;;;11.70;99.90;;;;;;5069131;28;19978;-81
2022/07/17 03:05:27;;;;;;;;;;;11.70;99.90;;;;;;5066668;28;19928;-80
2022/07/17 03:07:54;;;;;;;;;;;11.70;99.90;;;;;;5064322;28;20027;-79
2022/07/17 03:10:21;;;;;;;;;;;11.60;99.90;;;;;;5073654;28;19977;-84
2022/07/17 03:12:48;;;;;;;;;;;11.60;99.90;;;;;;5086652;28;19935;-80
2022/07/17 03:15:15;;;;;;;;;;;11.60;99.90;;;;;;5069951;28;20407;-83
2022/07/17 03:17:42;;;;;;;;;;;11.20;99.90;;;;;;5083818;28;19928;-81
2022/07/17 03:20:10;;;;;;;;;;;11.60;99.90;;;;;;5077791;28;19977;-82
2022/07/17 03:22:38;;;;;;;;;;;11.60;99.90;;;;;;5063827;28;20346;-83
2022/07/17 03:25:05;;;;;;;;;;;11.50;99.90;;;;;;5086057;28;20399;-82
2022/07/17 03:27:32;;;;;;;;;;;11.50;99.90;;;;;;5070890;28;20039;-83
2022/07/17 03:29:59;;;;;;;;;;;11.50;99.90;;;;;;5085359;28;19924;-84
2022/07/17 03:32:26;;;;;;;;;;;11.50;99.90;;;;;;5096806;28;19932;-83
2022/07/17 03:34:53;;;;;;;;;;;11.40;99.90;;;;;;5070567;28;20349;-83
2022/07/17 03:37:20;;;;;;;;;;;11.40;99.90;;;;;;5075251;28;19943;-83
2022/07/17 03:39:48;;;;;;;;;;;11.40;99.90;;;;;;5073456;28;19935;-84
2022/07/17 03:42:15;;;;;;;;;;;11.40;99.90;;;;;;5092694;28;20387;-83
2022/07/17 03:44:42;;;;;;;;;;;11.40;99.90;;;;;;5066844;28;19925;-83
2022/07/17 03:47:09;;;;;;;;;;;11.40;99.90;;;;;;5075386;28;20001;-83
2022/07/17 03:49:35;;;;;;;;;;;11.30;99.90;;;;;;5066720;28;19928;-84
2022/07/17 03:52:02;;;;;;;;;;;11.40;99.90;;;;;;5070922;28;19931;-83
2022/07/17 03:54:29;;;;;;;;;;;11.30;99.90;;;;;;5077508;28;19981;-84
2022/07/17 03:56:57;;;;;;;;;;;11.30;99.90;;;;;;5077790;28;20426;-84
2022/07/17 03:59:24;;;;;;;;;;;11.30;99.90;;;;;;5069443;28;19928;-84
2022/07/17 04:01:53;;;;;;;;;;;11.30;99.90;;;;;;5063855;28;19967;-83
2022/07/17 04:04:20;;;;;;;;;;;11.40;99.90;;;;;;5078940;28;19924;-83
2022/07/17 04:06:47;;;;;;;;;;;11.40;99.90;;;;;;5069593;28;19970;-83
2022/07/17 04:09:13;;;;;;;;;;;11.40;99.90;;;;;;5070110;28;19939;-83
2022/07/17 04:11:40;;;;;;;;;;;11.40;99.90;;;;;;5075380;28;19989;-83
2022/07/17 04:14:09;;;;;;;;;;;11.50;99.90;;;;;;5095682;28;19981;-83
2022/07/17 04:16:35;;;;;;;;;;;11.50;99.90;;;;;;5075996;28;19928;-83
2022/07/17 04:19:03;;;;;;;;;;;11.50;99.90;;;;;;5073249;28;19924;-83
2022/07/17 04:21:30;;;;;;;;;;;11.60;99.90;;;;;;5077085;28;19932;-82
2022/07/17 04:23:56;;;;;;;;;;;11.60;99.90;;;;;;5094974;28;19932;-81
2022/07/17 04:26:23;;;;;;;;;;;11.70;99.90;;;;;;5076213;28;19958;-82
2022/07/17 04:28:50;;;;;;;;;;;11.80;99.90;;;;;;5071696;28;19924;-82
2022/07/17 04:31:19;;;;;;;;;;;11.80;99.90;;;;;;5080243;28;19924;-83
2022/07/17 04:33:45;;;;;;;;;;;11.90;99.90;;;;;;5068269;28;19928;-83
2022/07/17 04:36:12;;;;;;;;;;;11.90;99.90;;;;;;5067712;28;19939;-83
2022/07/17 04:38:39;;;;;;;;;;;12.00;99.90;;;;;;5074033;28;19993;-82
2022/07/17 04:41:06;;;;;;;;;;;12.10;99.90;;;;;;5093352;28;19928;-83
2022/07/17 04:43:33;;;;;;;;;;;12.20;99.90;;;;;;5069163;28;19926;-83
2022/07/17 04:46:00;;;;;;;;;;;12.30;99.90;;;;;;5061817;28;19978;-82
2022/07/17 04:48:28;;;;;;;;;;;12.40;99.90;;;;;;5079388;28;19978;-83
2022/07/17 04:50:55;;;;;;;;;;;12.50;99.90;;;;;;5086956;28;19936;-84
2022/07/17 04:53:22;;;;;;;;;;;12.60;99.90;;;;;;5093820;28;19960;-83
2022/07/17 04:55:49;;;;;;;;;;;12.70;99.90;;;;;;5071118;28;19924;-82
2022/07/17 04:58:16;;;;;;;;;;;12.80;99.90;;;;;;5085852;28;20326;-83
2022/07/17 05:00:43;;;;;;;;;;;12.90;99.90;;;;;;5088723;28;19924;-83
2022/07/17 05:03:10;;;;;;;;;;;13.00;99.90;;;;;;5072315;28;20350;-84
2022/07/17 05:05:40;;;;;;;;;;;13.10;99.90;;;;;;5065456;28;19924;-84
2022/07/17 05:08:06;;;;;;;;;;;13.20;99.90;;;;;;5070110;28;19963;-84
2022/07/17 05:10:33;;;;;;;;;;;13.40;99.90;;;;;;5081708;28;19932;-83
2022/07/17 05:13:00;;;;;;;;;;;13.40;99.90;;;;;;5087681;28;20005;-83
2022/07/17 05:15:27;;;;;;;;;;;13.50;99.90;;;;;;5089700;28;19925;-83
2022/07/17 05:17:54;;;;;;;;;;;13.70;99.90;;;;;;5079391;28;19932;-83
2022/07/17 05:20:21;;;;;;;;;;;13.90;99.90;;;;;;5065314;28;19928;-84
2022/07/17 05:22:49;;;;;;;;;;;13.90;99.90;;;;;;5068567;28;19986;-83
2022/07/17 05:25:16;;;;;;;;;;;15.60;99.90;;;;;;5092498;28;20644;-83
2022/07/17 05:27:43;;;;;;;;;;;12.50;99.90;;;;;;5074509;28;19950;-84
2022/07/17 05:30:10;;;;;;;;;;;14.50;99.90;;;;;;5092005;28;19970;-84
2022/07/17 05:32:37;;;;;;;;;;;14.60;99.90;;;;;;5081254;28;19928;-83
2022/07/17 05:35:04;;;;;;;;;;;14.80;99.90;;;;;;5065052;28;19924;-84
2022/07/17 05:37:31;;;;;;;;;;;15.10;99.90;;;;;;5062744;28;20644;-83
2022/07/17 05:39:59;;;;;;;;;;;15.50;99.90;;;;;;5075290;28;19978;-84
2022/07/17 05:42:26;;;;;;;;;;;16.90;99.90;;;;;;5067408;28;19985;-84
2022/07/17 05:44:53;;;;;;;;;;;19.70;99.90;;;;;;5058769;28;19932;-84
2022/07/17 05:47:20;;;;;;;;;;;19.90;99.90;;;;;;5091552;28;19932;-83
2022/07/17 05:49:46;;;;;;;;;;;21.40;99.90;;;;;;5088647;28;20049;-84
2022/07/17 05:52:13;;;;;;;;;;;23.00;99.90;;;;;;5071874;28;19928;-84
2022/07/17 05:54:40;;;;;;;;;;;24.70;99.90;;;;;;5057734;28;20566;-84
2022/07/17 05:57:09;;;;;;;;;;;26.10;99.90;;;;;;5082093;28;19931;-84
2022/07/17 05:59:36;;;;;;;;;;;27.40;99.90;;;;;;5059395;28;19928;-84
2022/07/17 06:02:03;;;;;;;;;;;28.40;99.90;;;;;;5069948;28;19924;-84
2022/07/17 06:04:29;;;;;;;;;;;29.30;99.90;;;;;;5073181;28;19959;-84
2022/07/17 06:06:56;;;;;;;;;;;30.10;97.60;;;;;;5061785;28;19931;-84
2022/07/17 06:09:23;;;;;;;;;;;30.70;94.60;;;;;;5069142;28;19939;-84
2022/07/17 06:11:50;;;;;;;;;;;31.40;95.50;;;;;;5073455;28;19924;-83
2022/07/17 06:14:18;;;;;;;;;;;31.70;91.60;;;;;;5079985;28;19989;-83
2022/07/17 06:16:45;;;;;;;;;;;32.40;89.50;;;;;;5066278;28;19935;-85
2022/07/17 06:19:12;;;;;;;;;;;33.00;87.40;;;;;;5085460;28;20399;-83
2022/07/17 06:21:39;;;;;;;;;;;33.60;84.20;;;;;;5064731;28;20496;-83
2022/07/17 06:24:06;;;;;;;;;;;34.00;77.60;;;;;;5073586;28;19932;-84
2022/07/17 06:26:33;;;;;;;;;;;34.10;74.80;;;;;;5078499;28;19935;-83
2022/07/17 06:29:00;;;;;;;;;;;34.10;72.30;;;;;;5086022;28;19928;-84
2022/07/17 06:31:29;;;;;;;;;;;34.00;75.10;;;;;;5068749;28;19928;-84
2022/07/17 06:33:55;;;;;;;;;;;34.20;70.70;;;;;;5068028;28;19943;-84
2022/07/17 06:36:22;;;;;;;;;;;34.40;69.60;;;;;;5059634;28;20005;-84
2022/07/17 06:38:52;;;;;;;;;;;34.60;69.80;;;;;;5076897;28;20415;-83
2022/07/17 06:41:19;;;;;;;;;;;34.90;69.70;;;;;;5066492;28;20284;-82
2022/07/17 06:43:46;;;;;;;;;;;35.20;66.70;;;;;;5070112;28;20338;-80
2022/07/17 06:46:13;;;;;;;;;;;35.40;66.50;;;;;;5076507;28;20024;-80
2022/07/17 06:48:41;;;;;;;;;;;35.60;66.30;;;;;;5059261;28;20438;-81
2022/07/17 06:51:08;;;;;;;;;;;36.20;67.90;;;;;;5059358;28;19928;-80
2022/07/17 06:53:35;;;;;;;;;;;36.30;63.20;;;;;;5080085;28;20009;-81
2022/07/17 06:56:02;;;;;;;;;;;36.60;62.90;;;;;;5080078;28;20324;-81
2022/07/17 06:58:28;;;;;;;;;;;36.80;61.90;;;;;;5080525;28;19924;-80
2022/07/17 07:00:55;;;;;;;;;;;37.20;60.60;;;;;;5079862;28;19971;-80
2022/07/17 07:03:22;;;;;;;;;;;37.50;59.80;;;;;;5076832;28;19924;-81
2022/07/17 07:05:50;;;;;;;;;;;37.70;58.30;;;;;;5079861;28;19928;-80
2022/07/17 07:08:17;;;;;;;;;;;37.60;57.40;;;;;;5073149;28;19924;-82
2022/07/17 07:10:45;;;;;;;;;;;37.60;61.00;;;;;;5069242;28;19935;-83
2022/07/17 07:13:13;;;;;;;;;;;37.80;57.80;;;;;;5082345;28;19947;-83
2022/07/17 07:15:40;;;;;;;;;;;38.10;57.20;;;;;;5091599;28;20032;-81
2022/07/17 07:18:07;;;;;;;;;;;38.40;55.70;;;;;;5071742;28;19927;-81
2022/07/17 07:20:33;;;;;;;;;;;38.40;56.50;;;;;;5068942;28;19950;-82
2022/07/17 07:23:02;;;;;;;;;;;38.50;54.70;;;;;;5076022;28;19981;-81
2022/07/17 07:25:28;;;;;;;;;;;38.40;54.30;;;;;;5077486;28;20157;-80
2022/07/17 07:27:55;;;;;;;;;;;38.40;54.60;;;;;;5077701;28;19998;-80
2022/07/17 07:30:22;;;;;;;;;;;38.50;54.10;;;;;;5060940;28;20384;-80
2022/07/17 07:32:49;;;;;;;;;;;38.50;54.20;;;;;;5077581;28;19950;-79
2022/07/17 07:35:16;;;;;;;;;;;38.60;53.30;;;;;;5079058;28;20479;-80
2022/07/17 07:37:43;;;;;;;;;;;38.70;52.40;;;;;;5060785;28;19982;-80
2022/07/17 07:40:12;;;;;;;;;;;38.80;52.50;;;;;;5060514;28;19939;-80
2022/07/17 07:42:38;;;;;;;;;;;38.80;52.50;;;;;;5060778;28;19924;-79
2022/07/17 07:45:06;;;;;;;;;;;38.80;52.60;;;;;;5059886;28;19974;-80
2022/07/17 07:47:33;;;;;;;;;;;38.70;52.60;;;;;;5078755;28;19951;-80
2022/07/17 07:50:00;;;;;;;;;;;38.80;52.20;;;;;;5059895;28;19950;-79
2022/07/17 07:52:26;;;;;;;;;;;38.90;51.60;;;;;;5060737;28;19990;-80
2022/07/17 07:54:53;;;;;;;;;;;38.70;50.70;;;;;;5077785;28;19982;-80
2022/07/17 07:57:21;;;;;;;;;;;38.40;51.20;;;;;;5059333;28;19993;-80
2022/07/17 07:59:48;;;;;;;;;;;38.20;50.90;;;;;;5060706;28;19924;-80
2022/07/17 08:02:15;;;;;;;;;;;37.90;50.20;;;;;;5076140;28;19987;-79
2022/07/17 08:04:42;;;;;;;;;;;37.80;50.70;;;;;;5077006;28;19939;-80
2022/07/17 08:07:09;;;;;;;;;;;37.90;50.90;;;;;;5060099;28;20327;-80
2022/07/17 08:09:35;;;;;;;;;;;37.90;50.20;;;;;;5077323;28;20398;-79
2022/07/17 08:12:02;;;;;;;;;;;37.70;49.80;;;;;;5076727;28;19925;-80
2022/07/17 08:14:31;;;;;;;;;;;37.70;49.90;;;;;;5075601;28;19969;-80
2022/07/17 08:16:57;;;;;;;;;;;37.50;49.50;;;;;;5058756;28;19928;-80
2022/07/17 08:19:24;;;;;;;;;;;37.30;48.60;;;;;;5059079;28;20592;-80
2022/07/17 08:21:51;;;;;;;;;;;36.60;49.00;;;;;;5075132;28;19954;-80
2022/07/17 08:24:18;;;;;;;;;;;36.40;49.20;;;;;;5076703;28;20442;-81
2022/07/17 08:26:45;;;;;;;;;;;36.30;49.90;;;;;;5059311;28;19954;-81
2022/07/17 08:29:12;;;;;;;;;;;36.30;49.80;;;;;;5075631;28;19928;-81
2022/07/17 08:31:40;;;;;;;;;;;36.10;48.80;;;;;;5059989;28;19924;-81
2022/07/17 08:34:07;;;;;;;;;;;35.90;49.60;;;;;;5059968;28;19932;-81
2022/07/17 08:36:34;;;;;;;;;;;35.50;49.40;;;;;;5077530;28;19935;-81
2022/07/17 08:39:01;;;;;;;;;;;35.10;49.50;;;;;;5057992;28;20352;-81
2022/07/17 08:41:29;;;;;;;;;;;34.70;50.70;;;;;;5063006;28;19951;-81
2022/07/17 08:43:57;;;;;;;;;;;34.80;50.80;;;;;;5065013;28;20356;-81
2022/07/17 08:46:24;;;;;;;;;;;35.00;50.80;;;;;;5070175;28;19932;-81
2022/07/17 08:48:57;;;;;;;;;;;34.90;50.20;;;;;;5093171;28;19938;-81
2022/07/17 08:51:25;;;;;;;;;;;34.50;51.00;;;;;;5064875;28;19933;-81
2022/07/17 08:53:52;;;;;;;;;;;34.50;51.20;;;;;;5054965;28;20015;-81
2022/07/17 08:56:19;;;;;;;;;;;34.70;51.30;;;;;;5062993;28;20068;-81
2022/07/17 08:58:46;;;;;;;;;;;34.90;51.30;;;;;;5063417;28;20301;-81
2022/07/17 09:01:13;;;;;;;;;;;35.10;51.30;;;;;;5068048;28;19928;-81
2022/07/17 09:03:41;;;;;;;;;;;34.90;50.10;;;;;;5068614;28;20471;-80
2022/07/17 09:06:19;;;;;;;;;;;34.60;50.50;;;;;;5084798;28;19931;-81
2022/07/17 09:08:45;;;;;;;;;;;34.60;50.60;;;;;;5074643;28;19977;-80
2022/07/17 09:11:12;;;;;;;;;;;34.30;50.40;;;;;;5072163;28;19924;-81
2022/07/17 09:13:43;;;;;;;;;;;34.30;50.60;;;;;;5060681;28;19932;-80
2022/07/17 09:16:10;;;;;;;;;;;34.10;51.10;;;;;;5071126;28;19953;-81
2022/07/17 09:18:43;;;;;;;;;;;34.00;51.70;;;;;;5079243;28;20363;-81
2022/07/17 09:21:17;;;;;;;;;;;33.60;50.50;;;;;;5070234;28;19931;-80
2022/07/17 09:23:45;;;;;;;;;;;33.60;50.80;;;;;;5073474;28;19950;-81
2022/07/17 09:26:12;;;;;;;;;;;33.20;50.80;;;;;;5062304;28;19932;-80
2022/07/17 09:28:45;;;;;;;;;;;32.70;51.10;;;;;;5057547;28;20360;-80
2022/07/17 09:31:12;;;;;;;;;;;32.30;51.70;;;;;;5087522;28;20406;-79
2022/07/17 09:33:39;;;;;;;;;;;32.20;52.20;;;;;;5068875;28;19977;-79
2022/07/17 09:36:10;;;;;;;;;;;32.00;52.60;;;;;;5071817;28;20084;-82
2022/07/17 09:38:37;;;;;;;;;;;32.00;52.70;;;;;;5059705;28;19950;-80
2022/07/17 09:41:11;;;;;;;;;;;31.70;52.70;;;;;;5086642;28;19924;-80
2022/07/17 09:43:38;;;;;;;;;;;31.50;53.00;;;;;;5062427;28;20296;-80
2022/07/17 09:46:08;;;;;;;;;;;31.50;53.40;;;;;;5089657;28;20306;-80
2022/07/17 09:48:36;;;;;;;;;;;31.40;53.50;;;;;;5070932;28;20377;-80
2022/07/17 09:51:03;;;;;;;;;;;31.40;53.80;;;;;;5088557;28;20027;-80
2022/07/17 09:53:32;;;;;;;;;;;31.40;53.60;;;;;;5065987;28;19950;-80
2022/07/17 09:56:02;;;;;;;;;;;31.30;53.90;;;;;;5057763;28;19971;-81
2022/07/17 09:58:33;;;;;;;;;;;31.10;53.90;;;;;;5075280;28;19924;-80
2022/07/17 10:01:00;;;;;;;;;;;30.90;53.70;;;;;;5063958;28;20464;-81
2022/07/17 10:03:27;;;;;;;;;;;30.60;54.20;;;;;;5069286;28;20295;-80
2022/07/17 10:05:54;;;;;;;;;;;30.20;53.80;;;;;;5069601;28;20444;-80
2022/07/17 10:08:21;;;;;;;;;;;29.40;54.20;;;;;;5068432;28;20583;-82
2022/07/17 10:10:51;;;;;;;;;;;28.60;55.00;;;;;;5068853;28;19950;-83
2022/07/17 10:13:19;;;;;;;;;;;28.00;55.70;;;;;;5073676;28;19928;-82
2022/07/17 10:15:47;;;;;;;;;;;27.50;56.50;;;;;;5065925;28;19991;-83
2022/07/17 10:18:14;;;;;;;;;;;27.10;56.60;;;;;;5073950;28;20000;-82
2022/07/17 10:20:41;;;;;;;;;;;26.60;57.30;;;;;;5084197;28;19929;-83
2022/07/17 10:23:14;;;;;;;;;;;26.20;57.80;;;;;;5091475;28;19935;-83
2022/07/17 10:25:42;;;;;;;;;;;26.00;58.30;;;;;;5065433;28;20201;-82
2022/07/17 10:28:09;;;;;;;;;;;25.80;58.90;;;;;;5069034;28;20433;-83
2022/07/17 10:30:36;;;;;;;;;;;25.50;58.40;;;;;;5078691;28;19939;-83
2022/07/17 10:33:07;;;;;;;;;;;25.50;59.10;;;;;;5064881;28;19928;-83
2022/07/17 10:35:42;;;;;;;;;;;25.40;59.40;;;;;;5078548;28;19975;-83
2022/07/17 10:38:11;;;;;;;;;;;25.30;58.70;;;;;;5092591;28;19935;-82
2022/07/17 10:40:37;;;;;;;;;;;25.40;58.90;;;;;;5083250;28;19928;-83
2022/07/17 10:43:06;;;;;;;;;;;25.40;60.20;;;;;;5095692;28;19928;-82
2022/07/17 10:45:35;;;;;;;;;;;25.50;60.70;;;;;;5070662;28;20125;-82
2022/07/17 10:48:03;;;;;;;;;;;25.60;60.10;;;;;;5067151;28;19936;-83
2022/07/17 10:50:35;;;;;;;;;;;25.70;59.50;;;;;;5084503;28;19931;-82
2022/07/17 10:53:15;;;;;;;;;;;25.70;60.10;;;;;;5076806;28;19958;-83
2022/07/17 10:55:42;;;;;;;;;;;25.80;60.30;;;;;;5070976;28;19928;-82
2022/07/17 10:58:20;;;;;;;;;;;25.90;59.80;;;;;;5067586;28;19933;-82
2022/07/17 11:01:00;;;;;;;;;;;25.90;60.50;;;;;;5068714;28;19928;-82
2022/07/17 11:03:27;;;;;;;;;;;26.00;60.10;;;;;;5092269;28;19955;-82
2022/07/17 11:05:55;;;;;;;;;;;26.10;60.10;;;;;;5086308;28;19966;-82
2022/07/17 11:08:22;;;;;;;;;;;26.10;59.80;;;;;;5060273;28;20523;-82
2022/07/17 11:10:49;;;;;;;;;;;26.10;59.60;;;;;;5089164;28;19924;-83
2022/07/17 11:13:16;;;;;;;;;;;26.10;59.70;;;;;;5086267;28;19924;-82
2022/07/17 11:15:44;;;;;;;;;;;26.10;59.70;;;;;;5092772;28;19928;-81
2022/07/17 11:18:13;;;;;;;;;;;26.20;60.00;;;;;;5084700;28;19973;-82
2022/07/17 11:20:50;;;;;;;;;;;26.50;58.90;;;;;;5091332;28;19947;-81
2022/07/17 11:23:18;;;;;;;;;;;26.50;59.10;;;;;;5059576;28;19928;-83
2022/07/17 11:25:59;;;;;;;;;;;26.60;58.60;;;;;;5074628;28;19928;-82
2022/07/17 11:28:33;;;;;;;;;;;26.70;58.80;;;;;;5064286;28;20323;-81
2022/07/17 11:31:00;;;;;;;;;;;26.80;57.90;;;;;;5064044;28;19949;-82
2022/07/17 11:33:27;;;;;;;;;;;26.90;58.40;;;;;;5066451;28;20026;-81
2022/07/17 11:35:55;;;;;;;;;;;27.00;58.60;;;;;;5067163;28;19928;-82
2022/07/17 11:38:27;;;;;;;;;;;27.10;58.90;;;;;;5085697;28;19931;-82
2022/07/17 11:40:54;;;;;;;;;;;27.40;58.40;;;;;;5074056;28;20695;-82
2022/07/17 11:43:21;;;;;;;;;;;27.40;58.40;;;;;;5088988;28;20539;-82
2022/07/17 11:45:48;;;;;;;;;;;27.50;58.00;;;;;;5065194;28;20041;-82
2022/07/17 11:48:15;;;;;;;;;;;27.70;57.20;;;;;;5088980;28;19925;-81
2022/07/17 11:50:53;;;;;;;;;;;27.80;57.10;;;;;;5077336;28;20049;-82
2022/07/17 11:53:20;;;;;;;;;;;27.80;57.10;;;;;;5075124;28;19974;-81
2022/07/17 11:55:48;;;;;;;;;;;27.90;56.40;;;;;;5065844;28;19986;-82
2022/07/17 11:58:15;;;;;;;;;;;28.00;56.60;;;;;;5074704;28;20217;-81
2022/07/17 12:00:42;;;;;;;;;;;28.30;56.20;;;;;;5091236;28;20258;-82
2022/07/17 12:03:09;;;;;;;;;;;28.30;55.70;;;;;;5095103;28;19967;-82
2022/07/17 12:05:43;;;;;;;;;;;28.40;55.40;;;;;;5063663;28;19950;-82
2022/07/17 12:08:21;;;;;;;;;;;28.40;55.20;;;;;;5066238;28;19924;-82
2022/07/17 12:11:02;;;;;;;;;;;28.50;55.60;;;;;;5078293;28;19924;-82
2022/07/17 12:13:46;;;;;;;;;;;28.60;55.70;;;;;;5080667;28;19989;-79
2022/07/17 12:16:27;;;;;;;;;;;28.60;55.10;;;;;;5070574;28;20397;-79
2022/07/17 12:19:08;;;;;;;;;;;28.50;55.40;;;;;;5062158;28;19928;-79
2022/07/17 12:21:54;;;;;;;;;;;28.60;55.40;;;;;;5064722;28;19935;-83
2022/07/17 12:24:25;;;;;;;;;;;28.60;56.10;;;;;;5091831;28;20469;-81
2022/07/17 12:27:12;;;;;;;;;;;28.80;55.80;;;;;;5078764;22;20019;-79
2022/07/17 12:29:49;;;;;;;;;;;29.00;56.00;;;;;;5066997;28;19928;-79
2022/07/17 12:32:29;;;;;;;;;;;29.00;55.50;;;;;;5056760;28;20489;-79
2022/07/17 12:35:08;;;;;;;;;;;28.90;55.10;;;;;;5045693;28;19928;-79
2022/07/17 12:37:48;;;;;;;;;;;28.90;55.10;;;;;;5059733;28;20056;-79
2022/07/17 12:40:27;;;;;;;;;;;28.90;55.00;;;;;;5074605;28;20378;-79
2022/07/17 12:43:00;;;;;;;;;;;28.90;54.60;;;;;;5077398;28;19963;-80
2022/07/17 12:45:31;;;;;;;;;;;29.10;54.10;;;;;;5060184;28;19932;-81
2022/07/17 12:48:01;;;;;;;;;;;29.30;54.20;;;;;;5061528;28;20315;-79
2022/07/17 12:50:41;;;;;;;;;;;29.60;53.50;;;;;;5078911;28;19928;-79
2022/07/17 12:53:13;;;;;;;;;;;29.60;53.30;;;;;;5049615;28;19928;-79
2022/07/17 12:55:41;;;;;;;;;;;29.70;52.80;;;;;;5062449;28;19928;-79
2022/07/17 12:58:18;;;;;;;;;;;29.80;53.10;;;;;;5080653;28;19924;-79
2022/07/17 13:00:49;;;;;;;;;;;30.10;53.00;;;;;;5075062;28;20014;-79
2022/07/17 13:03:21;;;;;;;;;;;30.10;52.80;;;;;;5059417;28;19932;-79
2022/07/17 13:05:56;;;;;;;;;;;30.00;52.60;;;;;;5076880;28;19928;-79
2022/07/17 13:08:40;;;;;;;;;;;29.90;52.10;;;;;;5058002;28;19924;-81
2022/07/17 13:11:16;;;;;;;;;;;29.70;52.20;;;;;;5047993;28;19932;-79
2022/07/17 13:14:11;;;;;;;;;;;29.70;52.60;;;;;;5053186;28;19925;-79
2022/07/17 13:16:55;;;;;;;;;;;29.70;53.00;;;;;;5073203;28;19940;-79
2022/07/17 13:19:32;;;;;;;;;;;29.70;53.10;;;;;;5061574;28;19928;-79
2022/07/17 13:22:33;;;;;;;;;;;29.70;53.00;;;;;;5073068;28;20026;-79
2022/07/17 13:25:11;;;;;;;;;;;29.50;53.00;;;;;;5077939;28;19924;-80
2022/07/17 13:27:46;;;;;;;;;;;29.60;53.20;;;;;;5052004;28;20201;-79
2022/07/17 13:30:19;;;;;;;;;;;29.70;53.00;;;;;;5058903;28;19951;-79
2022/07/17 13:33:03;;;;;;;;;;;29.70;53.10;;;;;;5066462;28;19932;-79
2022/07/17 13:35:44;;;;;;;;;;;29.60;52.80;;;;;;5069788;28;19929;-79
2022/07/17 13:41:00;;;;;;;;;;;29.70;52.60;;;;;;5042869;28;20315;-79
2022/07/17 13:43:34;;;;;;;;;;;29.80;52.80;;;;;;5056676;28;19925;-79
2022/07/17 13:46:10;;;;;;;;;;;30.00;51.70;;;;;;5067879;28;19944;-79
2022/07/17 13:48:46;;;;;;;;;;;30.10;51.90;;;;;;5071824;28;19928;-80
2022/07/17 13:51:29;;;;;;;;;;;30.40;52.40;;;;;;5074013;28;19928;-79
2022/07/17 13:54:06;;;;;;;;;;;30.40;52.20;;;;;;5078026;28;19928;-79
2022/07/17 13:57:01;;;;;;;;;;;30.40;52.20;;;;;;5071878;28;19932;-79
2022/07/17 13:59:29;;;;;;;;;;;30.50;51.50;;;;;;5067226;28;19984;-80
2022/07/17 14:02:25;;;;;;;;;;;30.50;50.60;;;;;;5071587;28;19936;-80
2022/07/17 14:05:04;;;;;;;;;;;30.50;51.20;;;;;;5061449;28;19935;-80
2022/07/17 14:08:04;;;;;;;;;;;29.60;49.70;;;;;;5069470;28;19959;-80
2022/07/17 14:10:48;;;;;;;;;;;30.20;50.80;;;;;;5059657;28;20242;-81
2022/07/17 14:13:37;;;;;;;;;;;30.20;51.20;;;;;;5073082;28;20349;-81
2022/07/17 14:16:29;;;;;;;;;;;30.70;50.80;;;;;;5090210;28;19924;-80
2022/07/17 14:19:30;;;;;;;;;;;30.40;50.50;;;;;;5104715;28;19938;-81
2022/07/17 14:22:06;;;;;;;;;;;30.70;50.60;;;;;;5063103;28;20193;-79
2022/07/17 14:24:46;;;;;;;;;;;30.80;50.20;;;;;;5037839;28;19920;-80
2022/07/17 14:27:26;;;;;;;;;;;30.90;50.90;;;;;;5086330;28;19938;-79
2022/07/17 14:30:12;;;;;;;;;;;31.00;50.70;;;;;;5071157;28;19947;-80
2022/07/17 14:32:51;;;;;;;;;;;31.00;49.60;;;;;;5067787;28;19924;-81